createdAt,value
2019-03-06T00:06:01.495Z,90.90
2019-03-06T00:12:04.084Z,90.60
2019-03-06T00:18:06.407Z,91.00
2019-03-06T00:24:08.551Z,90.80
2019-03-06T00:30:11.266Z,90.70
2019-03-06T00:36:15.484Z,90.50
2019-03-06T00:42:21.439Z,90.40
2019-03-06T00:48:23.577Z,90.70
2019-03-06T00:54:25.956Z,90.80
2019-03-06T01:00:28.293Z,90.40
2019-03-06T01:06:32.389Z,90.50
2019-03-06T01:12:36.689Z,90.80
2019-03-06T01:18:40.024Z,90.20
2019-03-06T01:24:42.199Z,90.20
2019-03-06T01:30:46.471Z,90.10
2019-03-06T01:36:50.630Z,90.10
2019-03-06T01:42:54.707Z,89.60
2019-03-06T01:48:57.001Z,89.70
2019-03-06T01:55:00.352Z,89.70
2019-03-06T02:01:03.634Z,89.70
2019-03-06T02:07:10.136Z,90.00
2019-03-06T02:13:14.587Z,89.60
2019-03-06T02:19:16.990Z,89.80
2019-03-06T02:25:19.263Z,90.10
2019-03-06T02:31:21.610Z,90.00
2019-03-06T02:37:26.643Z,89.50
2019-03-06T02:43:29.995Z,89.90
2019-03-06T02:49:32.323Z,90.30
2019-03-06T02:55:34.478Z,90.60
2019-03-06T03:01:45.710Z,90.80
2019-03-06T03:07:48.220Z,90.90
2019-03-06T03:13:50.381Z,90.60
2019-03-06T03:19:52.694Z,90.50
2019-03-06T03:25:55.158Z,90.40
2019-03-06T03:31:57.410Z,90.30
2019-03-06T03:38:01.201Z,90.60
2019-03-06T03:44:03.510Z,90.80
2019-03-06T03:50:06.656Z,90.80
2019-03-06T03:56:08.893Z,91.10
2019-03-06T04:02:11.090Z,91.00
2019-03-06T04:08:13.303Z,91.10
2019-03-06T04:14:15.633Z,91.30
2019-03-06T04:20:21.395Z,91.60
2019-03-06T04:26:23.575Z,91.40
2019-03-06T04:32:25.740Z,91.40
2019-03-06T04:38:28.095Z,91.30
2019-03-06T04:44:30.276Z,91.80
2019-03-06T04:50:32.505Z,92.00
2019-03-06T04:56:36.707Z,92.10
2019-03-06T05:02:39.051Z,91.90
2019-03-06T05:08:41.700Z,91.90
2019-03-06T05:14:43.869Z,92.40
2019-03-06T05:20:46.178Z,92.40
2019-03-06T05:26:48.563Z,92.40
2019-03-06T05:32:51.055Z,92.80
2019-03-06T05:39:01.179Z,92.80
2019-03-06T05:45:03.671Z,93.30
2019-03-06T05:51:05.892Z,93.80
2019-03-06T05:57:08.284Z,93.30
2019-03-06T06:03:10.549Z,93.70
2019-03-06T06:09:12.788Z,93.50
2019-03-06T06:15:15.408Z,93.70
2019-03-06T06:21:28.503Z,93.50
2019-03-06T06:27:30.832Z,93.70
2019-03-06T06:33:33.231Z,93.70
2019-03-06T06:39:35.501Z,93.50
2019-03-06T06:45:38.822Z,93.40
2019-03-06T06:52:41.032Z,93.20
2019-03-06T06:59:11.576Z,93.30
2019-03-06T07:05:21.972Z,93.30
2019-03-06T07:11:26.352Z,93.40
2019-03-06T07:17:32.135Z,92.70
2019-03-06T07:23:52.960Z,92.60
2019-03-06T07:29:57.312Z,91.20
2019-03-06T07:36:02.547Z,84.70
2019-03-06T07:42:25.148Z,78.20
2019-03-06T07:48:44.083Z,74.50
2019-03-06T07:54:54.076Z,73.00
2019-03-06T08:00:56.391Z,70.80
2019-03-06T08:07:03.921Z,65.30
2019-03-06T08:13:10.908Z,66.90
2019-03-06T08:19:14.980Z,67.10
2019-03-06T08:25:24.704Z,67.70
2019-03-06T08:31:28.845Z,63.90
2019-03-06T08:37:31.203Z,62.70
2019-03-06T08:43:33.511Z,59.40
2019-03-06T08:49:49.968Z,60.40
2019-03-06T08:55:54.208Z,56.00
2019-03-06T09:02:04.317Z,53.70
2019-03-06T09:08:13.771Z,56.70
2019-03-06T09:14:20.913Z,56.30
2019-03-06T09:20:43.212Z,55.70
2019-03-06T09:26:47.268Z,55.50
2019-03-06T09:32:51.555Z,57.10
2019-03-06T09:39:01.815Z,56.60
2019-03-06T09:45:06.692Z,56.00
2019-03-06T09:51:22.627Z,58.20
2019-03-06T09:57:29.588Z,56.60
2019-03-06T10:03:46.128Z,57.30
2019-03-06T10:09:58.721Z,57.30
2019-03-06T10:15:56.589Z,54.60
2019-03-06T10:21:59.123Z,58.60
2019-03-06T10:28:06.273Z,58.30
2019-03-06T10:34:05.683Z,56.80
2019-03-06T10:40:10.692Z,59.50
2019-03-06T10:46:13.061Z,59.90
2019-03-06T10:52:15.279Z,60.30
2019-03-06T10:58:17.761Z,59.90
2019-03-06T11:04:27.526Z,60.80
2019-03-06T11:10:31.772Z,60.90
2019-03-06T11:16:34.327Z,59.90
2019-03-06T11:22:39.235Z,56.60
2019-03-06T11:28:41.468Z,54.60
2019-03-06T11:34:44.666Z,54.00
2019-03-06T11:40:46.774Z,54.60
2019-03-06T11:46:49.328Z,53.40
2019-03-06T11:52:51.775Z,52.70
2019-03-06T11:58:54.276Z,51.30
2019-03-06T12:04:56.648Z,52.80
2019-03-06T12:10:59.251Z,53.40
2019-03-06T12:17:01.785Z,54.60
2019-03-06T12:23:04.547Z,53.70
2019-03-06T12:29:07.862Z,53.70
2019-03-06T12:35:10.875Z,54.90
2019-03-06T12:41:13.251Z,52.30
2019-03-06T12:47:15.664Z,52.70
2019-03-06T12:53:18.031Z,52.50
2019-03-06T12:59:20.212Z,52.90
2019-03-06T13:05:23.157Z,51.90
2019-03-06T13:11:27.434Z,52.40
2019-03-06T13:17:30.585Z,52.20
2019-03-06T13:23:32.797Z,51.50
2019-03-06T13:29:34.995Z,51.50
2019-03-06T13:35:39.052Z,51.40
2019-03-06T13:41:41.196Z,51.30
2019-03-06T13:47:43.539Z,51.10
2019-03-06T13:53:45.707Z,50.30
2019-03-06T13:59:47.975Z,49.50
2019-03-06T14:05:54.421Z,49.30
2019-03-06T14:11:56.850Z,49.50
2019-03-06T14:17:59.336Z,50.80
2019-03-06T14:24:01.573Z,49.80
2019-03-06T14:30:06.200Z,49.80
2019-03-06T14:36:08.448Z,50.40
2019-03-06T14:42:10.699Z,50.70
2019-03-06T14:48:14.206Z,50.90
2019-03-06T14:54:16.515Z,50.50
2019-03-06T15:00:19.667Z,50.00
2019-03-06T15:06:21.819Z,50.10
2019-03-06T15:12:25.067Z,51.20
2019-03-06T15:18:27.814Z,51.30
2019-03-06T15:24:30.013Z,50.80
2019-03-06T15:30:32.457Z,50.90
2019-03-06T15:36:34.797Z,50.70
2019-03-06T15:42:37.037Z,51.10
2019-03-06T15:48:39.416Z,51.40
2019-03-06T15:54:42.187Z,51.50
2019-03-06T16:00:46.576Z,52.00
2019-03-06T16:06:53.980Z,52.60
2019-03-06T16:12:53.275Z,53.60
2019-03-06T16:18:56.140Z,53.90
2019-03-06T16:24:59.576Z,54.20
2019-03-06T16:31:02.028Z,54.70
2019-03-06T16:37:04.263Z,54.90
2019-03-06T16:43:06.544Z,54.70
2019-03-06T16:49:08.750Z,55.40
2019-03-06T16:55:13.648Z,55.30
2019-03-06T17:01:16.547Z,55.60
2019-03-06T17:07:18.840Z,55.40
2019-03-06T17:13:21.118Z,55.70
2019-03-06T17:19:27.259Z,56.20
2019-03-06T17:25:31.027Z,56.40
2019-03-06T17:31:33.309Z,57.00
2019-03-06T17:37:35.671Z,56.50
2019-03-06T17:43:37.959Z,56.80
2019-03-06T17:49:42.191Z,57.10
2019-03-06T17:55:44.599Z,57.30
2019-03-06T18:01:47.068Z,57.70
2019-03-06T18:07:49.517Z,57.90
2019-03-06T18:13:51.812Z,58.30
2019-03-06T18:19:56.187Z,59.00
2019-03-06T18:25:58.842Z,60.00
2019-03-06T18:32:01.209Z,60.80
2019-03-06T18:38:03.556Z,62.20
2019-03-06T18:44:05.960Z,62.80
2019-03-06T18:50:10.501Z,64.00
2019-03-06T18:56:14.425Z,65.30
2019-03-06T19:02:16.790Z,66.00
2019-03-06T19:08:19.143Z,67.50
2019-03-06T19:14:22.486Z,68.10
2019-03-06T19:20:36.950Z,69.00
2019-03-06T19:26:42.143Z,70.20
2019-03-06T19:32:44.845Z,71.70
2019-03-06T19:38:47.276Z,72.00
2019-03-06T19:44:49.673Z,73.20
2019-03-06T19:50:52.252Z,74.60
2019-03-06T19:56:55.086Z,74.60
2019-03-06T20:02:57.969Z,74.70
2019-03-06T20:09:00.352Z,75.00
2019-03-06T20:15:09.243Z,75.60
2019-03-06T20:21:12.241Z,76.40
2019-03-06T20:27:14.612Z,76.70
2019-03-06T20:33:19.706Z,77.80
2019-03-06T20:39:23.081Z,77.90
2019-03-06T20:45:26.028Z,79.20
2019-03-06T20:51:29.917Z,79.60
2019-03-06T20:57:32.184Z,80.30
2019-03-06T21:03:34.500Z,81.30
2019-03-06T21:09:38.734Z,81.40
2019-03-06T21:15:42.023Z,81.10
2019-03-06T21:21:44.916Z,82.70
2019-03-06T21:27:47.043Z,82.60
2019-03-06T21:33:49.188Z,83.00
2019-03-06T21:39:52.416Z,83.50
2019-03-06T21:45:55.773Z,83.30
2019-03-06T21:52:00.082Z,84.30
2019-03-06T21:58:02.258Z,84.70
2019-03-06T22:04:06.564Z,85.00
2019-03-06T22:10:08.837Z,85.00
2019-03-06T22:16:11.132Z,85.60
2019-03-06T22:22:13.637Z,86.80
2019-03-06T22:28:15.819Z,86.80
2019-03-06T22:34:19.128Z,87.50
2019-03-06T22:40:27.622Z,86.50
2019-03-06T22:46:29.896Z,86.20
2019-03-06T22:52:32.233Z,86.90
2019-03-06T22:58:34.541Z,85.90
2019-03-06T23:04:42.805Z,86.30
2019-03-06T23:10:46.094Z,86.00
2019-03-06T23:16:48.273Z,86.40
2019-03-06T23:22:50.463Z,87.00
2019-03-06T23:28:52.710Z,87.00
2019-03-06T23:34:54.956Z,86.50
2019-03-06T23:40:57.314Z,84.20
2019-03-06T23:47:05.767Z,83.40
2019-03-06T23:53:11.871Z,83.10
2019-03-06T23:59:14.331Z,83.00
